Terminal Aerodrome Forecast
Issued by NWS

Home | Current Version | Previous Version | Text Only | Print | Product List | Glossary On
Versions: 1 2 3 4 5 6 7 8 9 10 11 12 13
000
FTAK31 PAJN 211700
TAFAYA
TAF
PAYA 211731Z 2118/2218 10008KT P6SM -SHRA SCT015 OVC025
      WS015/14035KT
      TEMPO 2118/2119 12010G20KT 5SM SHRA BR OVC015
     FM212000 VRB03KT P6SM VCSH BKN030 OVC050
     FM220600 VRB08KT 5SM -SHRA BKN020 OVC050
      AMD LTD TO CLD VIS AND WIND 2201/2210=

USA.gov is the U.S. government's official web portal to all federal, state and local government web resources and services.